• Join FlightAware (Why Join?)
  • Login
  • US Flag 
12:20AM EDT


 

Airport Tracker/Info


-or-


 

Live Flight TrackerFlight Track Log ✈ ASQ5678 ✈ 09-May-2013 ✈ KIAH - KDAL

Flight Track Log - Related Links

Times and Time Zones

All times are in EDT time to prevent confusion due to time zone crossing. See the ASQ5678 flight status page for this flight to view local times or setup timezone preferences in your user account.

Time Position Orientation Groundspeed Altitude Reporting Facility
EDT Latitude Longitude Course Direction KTS MPH feet Rate Location/Type
12:33PM 29.9742 -95.2961 76° East 255 293 2,400  Level Houston Center
12:34PM 30.0411 -95.3086 351° North 266 306 4,400 2,220 Climbing Houston Center
12:35PM 30.1142 -95.3408 339° North 285 328 6,700 2,340 Climbing Houston Center
12:36PM 30.4061 -95.5811 334° Northwest  Level FlightAware Approximate
12:36PM 30.1833 -95.3906 328° Northwest 291 335 9,300  Level Houston Center
12:37PM 30.4916 -95.6287 334° Northwest  Level FlightAware Approximate
12:37PM 30.2522 -95.4422 327° Northwest 295 339 10,700  Level Houston Center
12:38PM 30.3317 -95.5022 327° Northwest 334 384 12,000 1,620 Climbing Houston Center
12:39PM 30.4306 -95.5703 329° Northwest 345 397 14,100 1,740 Climbing Houston Center
12:40PM 30.5256 -95.6044 343° North 358 412 15,700 1,440 Climbing Houston Center
12:41PM 30.6239 -95.6400 343° North 366 421 17,100 1,440 Climbing Houston Center
12:42PM 30.7353 -95.6797 343° North 372 428 18,700 1,260 Climbing Houston Center
12:43PM 30.8375 -95.7178 342° North 382 440 19,800 600 Climbing Houston Center
12:44PM 30.9458 -95.7572 343° North 400 460 20,000 60 Climbing Houston Center
12:45PM 31.0578 -95.7972 343° North 414 476 20,000  Level Houston Center
12:46PM 31.1700 -95.8389 342° North 419 482 20,000  Level Houston Center
12:46PM 31.2036 -95.8517 342° North 426 490 20,000  Level Fort Worth Center
12:47PM 31.3147 -95.8911 343° North 420 483 20,000  Level Fort Worth Center
12:48PM 31.4386 -95.9378 342° North 426 490 20,000  Level Fort Worth Center
12:49PM 31.5475 -95.9775 343° North 426 490 20,000 -720 Level Fort Worth Center
12:50PM 31.6525 -96.0197 341° North 414 476 18,600 -1,440 Descending Fort Worth Center
12:51PM 31.7614 -96.0597 343° North 407 468 17,200 -1,500 Descending Fort Worth Center
12:52PM 31.8683 -96.1022 341° North 407 468 15,700 -1,560 Descending Fort Worth Center
12:53PM 31.9753 -96.1422 342° North 408 470 14,100 -1,320 Descending Fort Worth Center
12:54PM 32.0778 -96.1800 343° North 396 456 13,100 -720 Descending Fort Worth Center
12:55PM 32.1847 -96.2228 341° North 388 447 12,700 -900 Descending Fort Worth Center
12:56PM 32.2539 -96.2611 335° Northwest 341 392 11,400 -1,680 Descending Fort Worth Center
12:57PM 32.3358 -96.3094 334° Northwest 300 345 9,400 -1,200 Descending Fort Worth Center
12:58PM 32.4094 -96.3528 334° Northwest 292 336 9,000 -420 Descending Fort Worth Center
12:59PM 32.4806 -96.3989 331° Northwest 286 329 8,600 -900 Descending Fort Worth Center
01:00PM 32.5500 -96.4400 333° Northwest 286 329 7,200 -1,500 Descending Fort Worth Center
01:01PM 32.6169 -96.4786 334° Northwest 274 315 5,600 -1,140 Descending Fort Worth Center
01:02PM 32.6778 -96.5175 332° Northwest 261 300 5,000 -300 Descending Fort Worth Center
01:03PM 32.7303 -96.5589 326° Northwest 232 267 5,000  Level Fort Worth Center
01:04PM 32.7847 -96.6006 327° Northwest 227 261 5,000 -300 Level Fort Worth Center
01:05PM 32.8353 -96.6419 325° Northwest 222 255 4,400 -780 Descending Fort Worth Center
01:06PM 32.8500 -96.6500 335° Northwest 221 254 4,000 -720 Descending Dallas / Fort Worth TRACON
01:07PM 32.9000 -96.6833 331° Northwest 201 231 3,500 -540 Descending Dallas / Fort Worth TRACON
01:08PM 32.9333 -96.7333 308° West 178 205 3,000 -300 Descending Dallas / Fort Worth TRACON
01:09PM 32.9500 -96.7833 292° West 183 211 3,000  Level Dallas / Fort Worth TRACON
01:10PM 32.9667 -96.8500 287° West 171 197 3,000 -60 Level Dallas / Fort Worth TRACON
01:11PM 32.9833 -96.9000 292° West 169 194 2,900 -540 Descending Dallas / Fort Worth TRACON
01:12PM 32.9667 -96.9333 239° Southwest 138 159 2,000 -480 Descending Dallas / Fort Worth TRACON
01:13PM 32.9167 -96.9333 180° South 142 163 2,000  Level Dallas / Fort Worth TRACON